createdAt,value
2022-12-01T00:01:22.968Z,48.53
2022-12-01T00:03:50.236Z,43.13
2022-12-01T00:06:20.182Z,42.03
2022-12-01T00:09:08.067Z,46.67
2022-12-01T00:11:36.674Z,42.67
2022-12-01T00:14:04.604Z,41.92
2022-12-01T00:16:31.794Z,42.28
2022-12-01T00:18:59.153Z,48.55
2022-12-01T00:21:29.470Z,48.80
2022-12-01T00:23:57.984Z,45.05
2022-12-01T00:26:26.334Z,45.55
2022-12-01T00:28:58.009Z,42.40
2022-12-01T00:31:25.893Z,41.42
2022-12-01T00:33:53.437Z,46.85
2022-12-01T00:36:21.364Z,41.95
2022-12-01T00:38:52.669Z,43.88
2022-12-01T00:41:20.960Z,41.58
2022-12-01T00:43:48.068Z,53.70
2022-12-01T00:46:15.261Z,42.28
2022-12-01T00:48:42.392Z,43.60
2022-12-01T00:51:09.663Z,50.55
2022-12-01T00:53:36.730Z,42.20
2022-12-01T00:56:03.894Z,43.50
2022-12-01T00:58:30.984Z,47.38
2022-12-01T01:01:00.829Z,41.13
2022-12-01T01:03:28.823Z,44.03
2022-12-01T01:05:55.891Z,39.35
2022-12-01T01:08:23.171Z,39.13
2022-12-01T01:10:50.545Z,42.53
2022-12-01T01:13:17.629Z,48.45
2022-12-01T01:15:45.016Z,43.88
2022-12-01T01:18:12.388Z,36.85
2022-12-01T01:20:39.868Z,42.85
2022-12-01T01:23:07.285Z,42.17
2022-12-01T01:25:34.543Z,41.58
2022-12-01T01:28:01.640Z,36.58
2022-12-01T01:30:28.705Z,48.58
2022-12-01T01:32:55.814Z,37.38
2022-12-01T01:35:22.864Z,45.92
2022-12-01T01:37:50.879Z,40.33
2022-12-01T01:40:18.625Z,38.40
2022-12-01T01:42:46.013Z,47.03
2022-12-01T01:45:21.426Z,42.10
2022-12-01T01:47:51.957Z,40.13
2022-12-01T01:50:26.433Z,42.38
2022-12-01T01:53:02.125Z,45.13
2022-12-01T01:55:32.047Z,40.67
2022-12-01T01:57:59.963Z,43.60
2022-12-01T02:00:27.453Z,43.75
2022-12-01T02:02:57.568Z,51.88
2022-12-01T02:05:28.162Z,41.40
2022-12-01T02:07:58.523Z,39.40
2022-12-01T02:11:08.577Z,43.92
2022-12-01T02:14:03.470Z,46.92
2022-12-01T02:16:33.258Z,47.10
2022-12-01T02:19:07.597Z,43.72
2022-12-01T02:22:02.640Z,43.78
2022-12-01T02:25:07.167Z,42.40
2022-12-01T02:28:00.333Z,51.00
2022-12-01T02:30:29.776Z,51.58
2022-12-01T02:33:04.132Z,47.55
2022-12-01T02:35:46.137Z,51.58
2022-12-01T02:38:28.559Z,55.28
2022-12-01T02:41:00.250Z,40.28
2022-12-01T02:43:51.706Z,48.53
2022-12-01T02:46:29.523Z,45.78
2022-12-01T02:49:01.891Z,50.78
2022-12-01T02:51:32.229Z,50.28
2022-12-01T02:54:01.945Z,49.15
2022-12-01T02:56:29.311Z,43.97
2022-12-01T02:58:56.412Z,44.60
2022-12-01T03:01:35.647Z,47.67
2022-12-01T03:04:10.918Z,55.28
2022-12-01T03:06:59.876Z,55.67
2022-12-01T03:09:35.721Z,54.38
2022-12-01T03:12:06.563Z,46.83
2022-12-01T03:14:41.805Z,49.47
2022-12-01T03:17:16.596Z,49.42
2022-12-01T03:19:50.214Z,50.47
2022-12-01T03:22:24.839Z,50.47
2022-12-01T03:24:54.530Z,48.95
2022-12-01T03:27:25.601Z,51.67
2022-12-01T03:29:56.356Z,46.25
2022-12-01T03:32:49.462Z,52.33
2022-12-01T03:35:24.397Z,49.45
2022-12-01T03:37:59.285Z,49.10
2022-12-01T03:40:30.791Z,48.70
2022-12-01T03:43:05.433Z,46.05
2022-12-01T03:46:07.878Z,49.95
2022-12-01T03:48:35.243Z,53.10
2022-12-01T03:51:25.252Z,43.10
2022-12-01T03:54:03.262Z,48.78
2022-12-01T03:56:37.747Z,45.88
2022-12-01T03:59:07.797Z,45.33
2022-12-01T04:01:34.947Z,48.15
2022-12-01T04:04:11.813Z,52.47
2022-12-01T04:06:42.247Z,40.22
2022-12-01T04:09:09.338Z,47.10
2022-12-01T04:11:54.747Z,51.03
2022-12-01T04:14:22.112Z,49.80
2022-12-01T04:16:49.457Z,49.67
2022-12-01T04:19:16.613Z,47.53
2022-12-01T04:21:43.687Z,46.47
2022-12-01T04:24:12.223Z,44.45
2022-12-01T04:26:39.415Z,54.20
2022-12-01T04:29:09.130Z,48.70
2022-12-01T04:31:36.507Z,47.22
2022-12-01T04:34:04.141Z,53.22
2022-12-01T04:36:33.003Z,48.28
2022-12-01T04:39:00.740Z,45.70
2022-12-01T04:41:28.270Z,52.78
2022-12-01T04:43:55.927Z,47.55
2022-12-01T04:46:24.223Z,51.30
2022-12-01T04:48:51.948Z,49.22
2022-12-01T04:51:19.147Z,57.85
2022-12-01T04:53:46.192Z,57.28
2022-12-01T04:56:13.316Z,49.13
2022-12-01T04:58:40.740Z,49.25
2022-12-01T05:01:11.295Z,50.33
2022-12-01T05:03:44.000Z,51.63
2022-12-01T05:06:13.728Z,49.40
2022-12-01T05:08:41.292Z,49.85
2022-12-01T05:11:09.088Z,55.47
2022-12-01T05:13:45.119Z,52.78
2022-12-01T05:16:17.935Z,56.05
2022-12-01T05:19:13.800Z,61.40
2022-12-01T05:21:41.762Z,52.85
2022-12-01T05:24:10.587Z,58.38
2022-12-01T05:26:37.792Z,50.30
2022-12-01T05:29:04.981Z,49.53
2022-12-01T05:31:32.473Z,62.95
2022-12-01T05:33:59.935Z,54.13
2022-12-01T05:36:27.174Z,56.13
2022-12-01T05:38:54.973Z,52.00
2022-12-01T05:41:22.049Z,51.88
2022-12-01T05:43:49.093Z,55.75
2022-12-01T05:46:16.312Z,57.65
2022-12-01T05:48:43.464Z,47.72
2022-12-01T05:51:12.391Z,60.60
2022-12-01T05:53:39.728Z,54.55
2022-12-01T05:56:08.263Z,56.80
2022-12-01T05:58:35.602Z,62.08
2022-12-01T06:01:03.548Z,55.80
2022-12-01T06:03:30.634Z,55.20
2022-12-01T06:05:57.955Z,58.35
2022-12-01T06:08:25.285Z,57.55
2022-12-01T06:10:52.401Z,60.60
2022-12-01T06:13:19.538Z,60.17
2022-12-01T06:15:55.350Z,53.15
2022-12-01T06:18:22.478Z,58.95
2022-12-01T06:20:49.572Z,51.45
2022-12-01T06:23:16.662Z,71.88
2022-12-01T06:25:43.713Z,63.00
2022-12-01T06:28:10.778Z,55.78
2022-12-01T06:30:37.816Z,65.55
2022-12-01T06:33:04.892Z,59.50
2022-12-01T06:35:31.950Z,61.38
2022-12-01T06:37:58.940Z,72.10
2022-12-01T06:40:26.077Z,51.78
2022-12-01T06:42:53.317Z,50.58
2022-12-01T06:45:20.465Z,68.95
2022-12-01T06:47:48.375Z,70.22
2022-12-01T06:50:15.410Z,62.05
2022-12-01T06:52:42.505Z,74.10
2022-12-01T06:55:09.728Z,64.60
2022-12-01T06:57:37.185Z,64.40
2022-12-01T07:00:05.034Z,71.82
2022-12-01T07:02:32.435Z,70.07
2022-12-01T07:04:59.613Z,64.95
2022-12-01T07:07:26.859Z,83.22
2022-12-01T07:09:53.961Z,60.78
2022-12-01T07:12:20.968Z,61.83
2022-12-01T07:14:48.094Z,74.35
2022-12-01T07:17:15.095Z,72.43
2022-12-01T07:19:42.086Z,68.68
2022-12-01T07:22:09.142Z,63.65
2022-12-01T07:24:36.302Z,63.70
2022-12-01T07:27:03.669Z,70.18
2022-12-01T07:29:30.697Z,59.35
2022-12-01T07:31:58.085Z,67.45
2022-12-01T07:34:25.165Z,66.60
2022-12-01T07:36:52.213Z,73.47
2022-12-01T07:39:19.286Z,68.80
2022-12-01T07:41:46.482Z,62.25
2022-12-01T07:44:13.633Z,63.58
2022-12-01T07:46:41.196Z,72.63
2022-12-01T07:49:15.999Z,70.53
2022-12-01T07:51:46.272Z,71.00
2022-12-01T07:54:17.577Z,69.10
2022-12-01T07:56:44.659Z,75.78
2022-12-01T07:59:12.204Z,70.78
2022-12-01T08:01:44.288Z,67.95
2022-12-01T08:04:11.982Z,74.85
2022-12-01T08:06:39.120Z,69.65
2022-12-01T08:09:06.311Z,72.47
2022-12-01T08:11:33.522Z,74.32
2022-12-01T08:14:00.580Z,79.93
2022-12-01T08:16:31.450Z,79.60
2022-12-01T08:18:59.219Z,74.63
2022-12-01T08:21:26.264Z,73.88
2022-12-01T08:23:56.064Z,78.35
2022-12-01T08:26:27.072Z,73.22
2022-12-01T08:28:54.624Z,74.88
2022-12-01T08:31:28.820Z,80.60
2022-12-01T08:33:56.903Z,73.60
2022-12-01T08:36:25.084Z,71.28
2022-12-01T08:38:55.272Z,67.95
2022-12-01T08:41:24.177Z,83.32
2022-12-01T08:44:00.123Z,79.47
2022-12-01T08:46:35.692Z,74.18
2022-12-01T08:49:04.680Z,71.22
2022-12-01T08:51:32.519Z,78.60
2022-12-01T08:54:01.155Z,76.38
2022-12-01T08:56:34.400Z,69.80
2022-12-01T08:59:02.596Z,67.28
2022-12-01T09:01:29.793Z,79.03
2022-12-01T09:04:11.021Z,64.65
2022-12-01T09:06:43.893Z,71.72
2022-12-01T09:09:14.760Z,78.83
2022-12-01T09:11:43.950Z,73.60
2022-12-01T09:14:12.385Z,80.25
2022-12-01T09:16:40.256Z,69.57
2022-12-01T09:19:07.342Z,75.75
2022-12-01T09:21:36.945Z,81.22
2022-12-01T09:24:05.819Z,75.65
2022-12-01T09:26:33.699Z,80.05
2022-12-01T09:29:06.661Z,80.35
2022-12-01T09:31:34.446Z,73.13
2022-12-01T09:34:04.442Z,81.88
2022-12-01T09:36:32.694Z,79.05
2022-12-01T09:39:00.000Z,77.93
2022-12-01T09:41:33.133Z,77.43
2022-12-01T09:44:05.949Z,78.70
2022-12-01T09:46:41.331Z,76.55
2022-12-01T09:49:17.497Z,72.65
2022-12-01T09:51:44.685Z,72.15
2022-12-01T09:54:14.427Z,81.13
2022-12-01T09:56:47.287Z,75.18
2022-12-01T09:59:35.577Z,74.93
2022-12-01T10:02:13.234Z,75.00
2022-12-01T10:04:46.158Z,73.68
2022-12-01T10:07:22.326Z,66.90
2022-12-01T10:10:01.098Z,72.53
2022-12-01T10:12:33.742Z,71.60
2022-12-01T10:15:15.354Z,68.30
2022-12-01T10:17:57.571Z,73.07
2022-12-01T10:20:44.892Z,72.53
2022-12-01T10:23:28.244Z,75.05
2022-12-01T10:26:43.106Z,76.30
2022-12-01T10:29:13.271Z,70.45
2022-12-01T10:31:49.325Z,69.68
2022-12-01T10:34:18.933Z,74.95
2022-12-01T10:36:46.970Z,70.40
2022-12-01T10:39:29.779Z,66.07
2022-12-01T10:42:19.745Z,59.92
2022-12-01T10:44:47.315Z,66.88
2022-12-01T10:47:23.607Z,62.50
2022-12-01T10:49:50.866Z,58.88
2022-12-01T10:52:38.660Z,61.28
2022-12-01T10:55:26.122Z,59.25
2022-12-01T10:57:56.967Z,59.25
2022-12-01T11:00:58.180Z,63.70
2022-12-01T11:03:29.127Z,58.50
2022-12-01T11:05:59.504Z,62.08
2022-12-01T11:08:44.050Z,56.35
2022-12-01T11:11:34.321Z,58.63
2022-12-01T11:14:31.860Z,61.85
2022-12-01T11:17:25.553Z,48.75
2022-12-01T11:19:53.044Z,54.95
2022-12-01T11:22:27.019Z,60.20
2022-12-01T11:27:23.371Z,47.75
2022-12-01T11:30:02.725Z,55.10
2022-12-01T11:32:32.448Z,54.20
2022-12-01T11:35:00.810Z,58.47
2022-12-01T11:37:33.226Z,49.50
2022-12-01T11:40:31.947Z,55.40
2022-12-01T11:43:05.896Z,48.00
2022-12-01T11:45:39.186Z,49.30
2022-12-01T11:48:20.655Z,52.38
2022-12-01T11:51:19.720Z,52.15
2022-12-01T11:53:47.073Z,50.08
2022-12-01T11:56:16.805Z,54.03
2022-12-01T11:58:45.716Z,55.85
2022-12-01T12:01:47.414Z,51.53
2022-12-01T12:04:45.094Z,55.40
2022-12-01T12:07:30.708Z,53.65
2022-12-01T12:10:35.276Z,47.13
2022-12-01T12:16:08.468Z,47.88
2022-12-01T12:18:59.513Z,43.03
2022-12-01T12:21:51.180Z,46.33
2022-12-01T12:24:26.057Z,48.30
2022-12-01T12:27:28.129Z,52.78
2022-12-01T12:30:00.851Z,41.88
2022-12-01T12:32:46.427Z,43.20
2022-12-01T12:35:34.966Z,41.88
2022-12-01T12:38:11.522Z,46.78
2022-12-01T12:40:46.887Z,44.00
2022-12-01T12:43:40.945Z,45.60
2022-12-01T12:46:12.412Z,42.80
2022-12-01T12:49:20.915Z,47.97
2022-12-01T12:51:48.094Z,49.22
2022-12-01T12:54:33.670Z,52.80
2022-12-01T12:57:06.109Z,44.67
2022-12-01T12:59:48.568Z,40.83
2022-12-01T13:02:34.320Z,41.65
2022-12-01T13:05:28.851Z,41.20
2022-12-01T13:08:11.256Z,44.53
2022-12-01T13:10:58.075Z,45.95
2022-12-01T13:13:37.504Z,44.53
2022-12-01T13:16:12.208Z,40.22
2022-12-01T13:18:50.520Z,44.28
2022-12-01T13:21:20.518Z,39.03
2022-12-01T13:23:50.066Z,46.63
2022-12-01T13:26:20.188Z,42.35
2022-12-01T13:28:51.697Z,47.40
2022-12-01T13:31:20.843Z,40.97
2022-12-01T13:34:03.605Z,40.80
2022-12-01T13:36:46.814Z,36.53
2022-12-01T13:39:29.515Z,39.80
2022-12-01T13:42:06.226Z,35.60
2022-12-01T13:44:45.874Z,39.00
2022-12-01T13:47:12.920Z,36.42
2022-12-01T13:49:44.427Z,34.15
2022-12-01T13:52:22.891Z,39.75
2022-12-01T13:55:10.740Z,37.47
2022-12-01T13:58:05.429Z,37.40
2022-12-01T14:00:34.702Z,37.67
2022-12-01T14:03:20.173Z,39.22
2022-12-01T14:05:53.332Z,41.90
2022-12-01T14:08:29.695Z,36.85
2022-12-01T14:11:19.180Z,38.85
2022-12-01T14:13:55.418Z,41.28
2022-12-01T14:16:23.481Z,43.65
2022-12-01T14:18:55.450Z,32.58
2022-12-01T14:21:47.200Z,38.00
2022-12-01T14:24:51.244Z,31.70
2022-12-01T14:27:36.868Z,42.50
2022-12-01T14:30:41.058Z,39.40
2022-12-01T14:33:42.034Z,40.10
2022-12-01T14:36:21.839Z,42.65
2022-12-01T14:38:52.904Z,35.33
2022-12-01T14:41:26.521Z,39.20
2022-12-01T14:44:03.614Z,32.55
2022-12-01T14:46:52.871Z,33.15
2022-12-01T14:49:25.534Z,33.70
2022-12-01T14:52:04.473Z,37.95
2022-12-01T14:54:39.117Z,38.08
2022-12-01T14:57:11.098Z,37.90
2022-12-01T14:59:40.855Z,37.42
2022-12-01T15:02:11.887Z,39.38
2022-12-01T15:05:12.644Z,34.17
2022-12-01T15:07:42.484Z,38.97
2022-12-01T15:10:16.868Z,34.97
2022-12-01T15:12:44.020Z,39.38
2022-12-01T15:15:24.343Z,40.53
2022-12-01T15:17:55.747Z,37.55
2022-12-01T15:20:35.384Z,38.67
2022-12-01T15:23:12.496Z,43.55
2022-12-01T15:25:43.450Z,40.03
2022-12-01T15:28:17.633Z,41.70
2022-12-01T15:30:51.723Z,37.40
2022-12-01T15:33:36.795Z,44.53
2022-12-01T15:36:07.275Z,42.42
2022-12-01T15:38:37.901Z,43.47
2022-12-01T15:41:28.691Z,32.45
2022-12-01T15:44:05.421Z,42.25
2022-12-01T15:46:36.946Z,35.13
2022-12-01T15:49:32.570Z,36.33
2022-12-01T15:52:12.244Z,35.03
2022-12-01T15:54:39.968Z,35.97
2022-12-01T15:57:07.366Z,38.33
2022-12-01T15:59:44.484Z,39.55
2022-12-01T16:02:20.396Z,41.92
2022-12-01T16:04:48.809Z,42.83
2022-12-01T16:07:16.279Z,42.17
2022-12-01T16:09:58.136Z,39.13
2022-12-01T16:12:36.948Z,38.80
2022-12-01T16:15:12.375Z,37.63
2022-12-01T16:17:43.877Z,44.17
2022-12-01T16:20:40.478Z,39.40
2022-12-01T16:23:15.407Z,31.38
2022-12-01T16:25:46.134Z,43.50
2022-12-01T16:28:37.246Z,38.58
2022-12-01T16:31:05.710Z,40.55
2022-12-01T16:33:38.127Z,40.45
2022-12-01T16:36:05.627Z,38.42
2022-12-01T16:38:32.661Z,51.03
2022-12-01T16:41:01.388Z,46.80
2022-12-01T16:43:29.316Z,51.00
2022-12-01T16:46:02.991Z,44.28
2022-12-01T16:51:02.529Z,52.38
2022-12-01T16:53:29.600Z,41.58
2022-12-01T16:56:01.735Z,48.90
2022-12-01T16:58:29.355Z,45.78
2022-12-01T17:00:57.001Z,45.15
2022-12-01T17:03:27.785Z,48.58
2022-12-01T17:05:55.968Z,47.67
2022-12-01T17:08:23.096Z,50.28
2022-12-01T17:10:51.675Z,46.58
2022-12-01T17:13:21.837Z,52.35
2022-12-01T17:15:51.396Z,57.75
2022-12-01T17:18:20.225Z,57.35
2022-12-01T17:20:58.675Z,51.97
2022-12-01T17:23:29.201Z,52.75
2022-12-01T17:25:56.281Z,48.83
2022-12-01T17:28:23.383Z,51.50
2022-12-01T17:30:50.509Z,50.80
2022-12-01T17:33:17.553Z,53.97
2022-12-01T17:35:44.564Z,62.85
2022-12-01T17:38:11.673Z,65.40
2022-12-01T17:40:38.824Z,55.83
2022-12-01T17:43:07.750Z,46.40
2022-12-01T17:45:34.859Z,49.08
2022-12-01T17:48:01.950Z,57.83
2022-12-01T17:50:31.966Z,57.05
2022-12-01T17:52:59.751Z,57.15
2022-12-01T17:55:27.054Z,57.67
2022-12-01T17:57:54.110Z,57.35
2022-12-01T18:00:21.700Z,55.80
2022-12-01T18:02:50.554Z,57.03
2022-12-01T18:05:17.778Z,51.00
2022-12-01T18:07:45.077Z,49.13
2022-12-01T18:10:12.311Z,58.33
2022-12-01T18:12:39.317Z,54.15
2022-12-01T18:15:07.053Z,52.20
2022-12-01T18:17:34.158Z,57.65
2022-12-01T18:20:01.293Z,57.05
2022-12-01T18:22:29.001Z,51.50
2022-12-01T18:24:56.507Z,53.78
2022-12-01T18:27:23.783Z,57.35
2022-12-01T18:29:50.767Z,47.25
2022-12-01T18:32:17.738Z,52.03
2022-12-01T18:34:44.958Z,48.30
2022-12-01T18:37:12.005Z,49.00
2022-12-01T18:39:39.060Z,58.63
2022-12-01T18:42:06.188Z,53.97
2022-12-01T18:44:33.300Z,54.08
2022-12-01T18:47:02.691Z,52.65
2022-12-01T18:49:29.785Z,58.03
2022-12-01T18:51:57.327Z,65.35
2022-12-01T18:54:24.376Z,62.80
2022-12-01T18:56:52.789Z,48.08
2022-12-01T18:59:19.918Z,54.95
2022-12-01T19:01:48.637Z,54.05
2022-12-01T19:04:16.648Z,57.75
2022-12-01T19:06:45.588Z,52.70
2022-12-01T19:09:14.321Z,49.80
2022-12-01T19:11:41.859Z,49.08
2022-12-01T19:14:17.747Z,57.30
2022-12-01T19:16:45.532Z,62.75
2022-12-01T19:19:12.686Z,56.65
2022-12-01T19:21:39.754Z,59.78
2022-12-01T19:24:06.999Z,56.72
2022-12-01T19:26:34.051Z,54.75
2022-12-01T19:29:01.144Z,56.00
2022-12-01T19:31:31.163Z,56.05
2022-12-01T19:33:58.934Z,59.13
2022-12-01T19:36:32.167Z,54.25
2022-12-01T19:39:00.493Z,53.60
2022-12-01T19:41:29.322Z,57.63
2022-12-01T19:43:58.122Z,50.85
2022-12-01T19:46:27.495Z,57.35
2022-12-01T19:48:58.087Z,57.22
2022-12-01T19:51:28.227Z,48.78
2022-12-01T19:53:55.339Z,55.97
2022-12-01T19:56:23.479Z,56.10
2022-12-01T19:58:50.772Z,54.47
2022-12-01T20:01:19.658Z,51.47
2022-12-01T20:03:49.169Z,53.15
2022-12-01T20:06:19.384Z,54.67
2022-12-01T20:08:46.522Z,53.85
2022-12-01T20:11:14.420Z,56.75
2022-12-01T20:13:43.237Z,62.80
2022-12-01T20:16:12.869Z,53.00
2022-12-01T20:18:40.781Z,51.40
2022-12-01T20:21:15.901Z,65.32
2022-12-01T20:23:48.576Z,57.97
2022-12-01T20:26:17.179Z,50.45
2022-12-01T20:28:46.542Z,52.22
2022-12-01T20:31:17.310Z,60.78
2022-12-01T20:33:44.407Z,53.85
2022-12-01T20:36:12.340Z,56.65
2022-12-01T20:38:39.388Z,65.47
2022-12-01T20:41:06.800Z,58.13
2022-12-01T20:43:34.573Z,54.88
2022-12-01T20:46:02.689Z,57.05
2022-12-01T20:48:30.201Z,51.67
2022-12-01T20:51:00.198Z,60.45
2022-12-01T20:53:27.199Z,58.58
2022-12-01T20:55:55.173Z,66.50
2022-12-01T20:58:22.356Z,56.42
2022-12-01T21:00:49.446Z,57.58
2022-12-01T21:03:16.588Z,55.65
2022-12-01T21:05:44.258Z,55.72
2022-12-01T21:08:13.315Z,52.28
2022-12-01T21:10:44.797Z,54.42
2022-12-01T21:13:39.386Z,57.53
2022-12-01T21:16:24.748Z,54.63
2022-12-01T21:18:53.240Z,58.80
2022-12-01T21:21:22.461Z,59.08
2022-12-01T21:24:03.605Z,63.13
2022-12-01T21:26:30.673Z,57.70
2022-12-01T21:28:59.866Z,62.03
2022-12-01T21:31:27.370Z,54.97
2022-12-01T21:33:56.344Z,59.65
2022-12-01T21:36:28.315Z,57.45
2022-12-01T21:39:05.369Z,52.30
2022-12-01T21:41:32.409Z,59.78
2022-12-01T21:44:12.234Z,56.95
2022-12-01T21:46:41.561Z,51.70
2022-12-01T21:49:35.276Z,53.20
2022-12-01T21:52:06.798Z,61.72
2022-12-01T21:54:34.857Z,55.65
2022-12-01T21:57:01.853Z,55.40
2022-12-01T21:59:29.847Z,56.88
2022-12-01T22:01:58.016Z,56.80
2022-12-01T22:04:29.993Z,50.47
2022-12-01T22:06:58.927Z,57.05
2022-12-01T22:09:34.949Z,58.10
2022-12-01T22:12:42.433Z,57.58
2022-12-01T22:15:36.360Z,50.85
2022-12-01T22:18:17.330Z,48.40
2022-12-01T22:20:44.536Z,54.05
2022-12-01T22:23:13.368Z,52.58
2022-12-01T22:25:41.844Z,45.95
2022-12-01T22:28:14.413Z,54.90
2022-12-01T22:30:41.604Z,49.95
2022-12-01T22:33:21.159Z,54.97
2022-12-01T22:35:50.311Z,58.30
2022-12-01T22:38:26.318Z,59.85
2022-12-01T22:41:00.790Z,56.60
2022-12-01T22:43:46.319Z,54.97
2022-12-01T22:46:21.460Z,60.53
2022-12-01T22:49:10.830Z,58.38
2022-12-01T22:51:40.800Z,53.72
2022-12-01T22:54:25.227Z,60.35
2022-12-01T22:57:28.305Z,60.65
2022-12-01T22:59:55.855Z,67.82
2022-12-01T23:02:27.285Z,62.53
2022-12-01T23:04:59.117Z,60.05
2022-12-01T23:07:34.474Z,66.20
2022-12-01T23:10:09.344Z,63.97
2022-12-01T23:12:37.304Z,69.25
2022-12-01T23:15:27.219Z,63.30
2022-12-01T23:17:55.077Z,64.63
2022-12-01T23:20:33.608Z,62.85
2022-12-01T23:23:04.010Z,60.40
2022-12-01T23:25:31.551Z,61.03
2022-12-01T23:28:03.561Z,63.75
2022-12-01T23:30:30.969Z,66.80
2022-12-01T23:33:24.091Z,68.05
2022-12-01T23:35:57.304Z,56.72
2022-12-01T23:38:34.811Z,62.92
2022-12-01T23:41:05.882Z,62.60
2022-12-01T23:43:40.064Z,66.32
2022-12-01T23:46:12.605Z,60.35
2022-12-01T23:48:53.333Z,71.88
2022-12-01T23:51:26.222Z,74.65
2022-12-01T23:53:55.093Z,68.65
2022-12-01T23:56:25.201Z,63.03
2022-12-01T23:58:54.333Z,69.95
